createdAt,value
2019-02-03T00:02:23.544Z,29.13
2019-02-03T00:04:55.024Z,27.50
2019-02-03T00:07:26.340Z,27.53
2019-02-03T00:09:57.701Z,27.90
2019-02-03T00:12:29.141Z,29.07
2019-02-03T00:15:00.557Z,26.83
2019-02-03T00:17:31.756Z,28.33
2019-02-03T00:20:03.352Z,26.30
2019-02-03T00:22:34.900Z,27.57
2019-02-03T00:25:07.070Z,26.97
2019-02-03T00:27:38.336Z,31.40
2019-02-03T00:30:10.756Z,25.40
2019-02-03T00:32:43.329Z,25.70
2019-02-03T00:35:15.478Z,24.90
2019-02-03T00:37:46.821Z,30.30
2019-02-03T00:40:18.204Z,25.90
2019-02-03T00:42:49.385Z,22.17
2019-02-03T00:45:20.726Z,26.00
2019-02-03T00:47:52.392Z,27.47
2019-02-03T00:50:23.636Z,33.87
2019-02-03T00:52:54.880Z,31.67
2019-02-03T00:55:26.126Z,30.07
2019-02-03T00:57:57.669Z,27.60
2019-02-03T01:00:29.145Z,26.87
2019-02-03T01:03:00.520Z,28.70
2019-02-03T01:05:31.773Z,24.57
2019-02-03T01:08:03.325Z,26.40
2019-02-03T01:10:34.773Z,24.00
2019-02-03T01:13:06.333Z,24.93
2019-02-03T01:15:37.580Z,25.70
2019-02-03T01:18:09.085Z,27.17
2019-02-03T01:20:40.317Z,25.80
2019-02-03T01:23:11.544Z,21.77
2019-02-03T01:25:42.928Z,26.50
2019-02-03T01:28:14.180Z,25.03
2019-02-03T01:30:45.403Z,24.73
2019-02-03T01:33:16.989Z,24.77
2019-02-03T01:35:48.254Z,30.13
2019-02-03T01:38:19.550Z,31.60
2019-02-03T01:40:51.220Z,26.33
2019-02-03T01:43:22.641Z,26.83
2019-02-03T01:45:54.444Z,22.27
2019-02-03T01:48:25.692Z,21.97
2019-02-03T01:50:56.948Z,24.80
2019-02-03T01:53:28.200Z,24.43
2019-02-03T01:55:59.781Z,29.03
2019-02-03T01:58:31.041Z,28.70
2019-02-03T03:01:23.601Z,43.00
2019-02-03T03:03:54.877Z,47.80
2019-02-03T03:06:26.144Z,46.50
2019-02-03T03:08:58.392Z,48.57
2019-02-03T03:11:30.034Z,45.03
2019-02-03T03:14:01.281Z,55.17
2019-02-03T03:16:32.941Z,46.03
2019-02-03T03:19:04.397Z,50.70
2019-02-03T03:21:35.614Z,56.80
2019-02-03T03:24:07.072Z,52.73
2019-02-03T03:26:38.277Z,57.57
2019-02-03T03:29:09.526Z,53.77
2019-02-03T03:31:40.804Z,55.13
2019-02-03T03:34:12.017Z,58.70
2019-02-03T03:36:43.248Z,59.17
2019-02-03T03:39:14.463Z,60.20
2019-02-03T03:41:45.793Z,53.23
2019-02-03T03:44:17.005Z,60.83
2019-02-03T03:46:48.253Z,57.10
2019-02-03T03:49:19.533Z,56.07
2019-02-03T03:51:50.855Z,55.93
2019-02-03T03:54:22.112Z,55.27
2019-02-03T03:56:53.361Z,56.73
2019-02-03T03:59:24.873Z,51.33
2019-02-03T04:01:56.257Z,53.93
2019-02-03T04:04:27.509Z,54.13
2019-02-03T04:06:58.755Z,55.97
2019-02-03T04:09:30.104Z,52.77
2019-02-03T04:12:01.552Z,55.77
2019-02-03T04:14:32.802Z,54.73
2019-02-03T04:17:04.049Z,52.43
2019-02-03T04:19:35.284Z,54.97
2019-02-03T04:22:06.513Z,59.83
2019-02-03T04:24:37.824Z,55.77
2019-02-03T04:27:09.171Z,54.47
2019-02-03T04:29:40.408Z,53.73
2019-02-03T04:32:11.657Z,49.67
2019-02-03T04:34:42.901Z,48.47
2019-02-03T04:37:14.159Z,46.80
2019-02-03T04:39:45.429Z,52.50
2019-02-03T04:42:17.676Z,51.77
2019-02-03T04:44:48.919Z,53.57
2019-02-03T04:47:20.200Z,48.30
2019-02-03T04:49:51.601Z,48.47
2019-02-03T04:52:22.852Z,50.93
2019-02-03T04:54:54.213Z,53.00
2019-02-03T04:57:25.456Z,52.17
2019-02-03T04:59:57.980Z,44.77
2019-02-03T05:02:29.256Z,52.37
2019-02-03T05:05:00.559Z,46.67
2019-02-03T05:07:31.786Z,42.90
2019-02-03T05:10:03.093Z,44.83
2019-02-03T05:12:34.597Z,51.67
2019-02-03T05:15:07.630Z,40.27
2019-02-03T05:17:38.882Z,46.53
2019-02-03T05:20:11.967Z,43.73
2019-02-03T05:22:43.250Z,48.87
2019-02-03T05:25:15.065Z,53.00
2019-02-03T05:27:46.316Z,41.63
2019-02-03T05:30:22.729Z,50.63
2019-02-03T05:32:54.141Z,47.63
2019-02-03T05:35:25.399Z,41.83
2019-02-03T05:37:56.738Z,42.30
2019-02-03T05:40:27.958Z,45.03
2019-02-03T05:42:59.608Z,40.43
2019-02-03T05:45:30.853Z,43.27
2019-02-03T05:48:02.065Z,36.70
2019-02-03T05:50:33.304Z,34.70
2019-02-03T05:53:04.955Z,40.23
2019-02-03T05:55:36.204Z,38.83
2019-02-03T05:58:07.437Z,43.67
2019-02-03T06:00:41.704Z,37.57
2019-02-03T06:03:12.999Z,33.93
2019-02-03T06:05:44.441Z,39.00
2019-02-03T06:08:15.703Z,41.37
2019-02-03T06:10:47.241Z,34.13
2019-02-03T06:13:18.481Z,37.10
2019-02-03T06:15:49.741Z,41.73
2019-02-03T06:18:20.981Z,38.63
2019-02-03T06:20:52.540Z,35.03
2019-02-03T06:23:23.848Z,35.37
2019-02-03T06:25:55.545Z,39.30
2019-02-03T06:28:26.795Z,30.33
2019-02-03T06:31:14.235Z,34.53
2019-02-03T06:33:45.396Z,26.77
2019-02-03T06:36:17.388Z,30.80
2019-02-03T06:38:48.821Z,30.87
2019-02-03T06:41:20.160Z,29.73
2019-02-03T06:43:51.700Z,32.03
2019-02-03T06:46:44.927Z,24.93
2019-02-03T06:49:37.304Z,33.00
2019-02-03T06:52:08.777Z,28.43
2019-02-03T06:54:40.001Z,25.60
2019-02-03T06:57:11.256Z,26.60
2019-02-03T06:59:50.608Z,27.10
2019-02-03T07:02:15.488Z,27.97
2019-02-03T07:04:46.905Z,31.10
2019-02-03T07:07:18.282Z,29.63
2019-02-03T07:09:59.668Z,24.90
2019-02-03T07:12:22.394Z,30.50
2019-02-03T07:14:54.071Z,29.73
2019-02-03T07:17:25.752Z,27.30
2019-02-03T07:19:57.105Z,28.10
2019-02-03T07:22:28.361Z,30.47
2019-02-03T07:25:02.236Z,29.20
2019-02-03T07:27:33.945Z,25.90
2019-02-03T07:30:06.490Z,30.67
2019-02-03T07:32:37.721Z,27.10
2019-02-03T07:35:09.569Z,30.97
2019-02-03T07:37:40.804Z,26.50
2019-02-03T07:40:12.931Z,28.30
2019-02-03T07:42:44.429Z,22.53
2019-02-03T07:45:15.881Z,27.17
2019-02-03T07:47:47.424Z,24.60
2019-02-03T07:50:18.777Z,25.83
2019-02-03T07:52:50.629Z,29.60
2019-02-03T07:55:25.544Z,22.87
2019-02-03T07:57:57.397Z,33.80
2019-02-03T08:00:28.685Z,20.20
2019-02-03T08:03:00.149Z,24.13
2019-02-03T08:05:31.439Z,23.23
2019-02-03T08:08:02.676Z,28.80
2019-02-03T08:10:33.932Z,21.63
2019-02-03T08:13:05.287Z,20.80
2019-02-03T08:15:37.624Z,27.00
2019-02-03T08:18:09.095Z,21.47
2019-02-03T08:20:41.485Z,26.57
2019-02-03T08:23:13.134Z,20.40
2019-02-03T08:25:44.657Z,27.63
2019-02-03T08:28:15.947Z,22.37
2019-02-03T08:30:47.378Z,26.17
2019-02-03T08:33:18.622Z,21.73
2019-02-03T08:35:50.197Z,20.73
2019-02-03T08:38:21.623Z,22.83
2019-02-03T08:40:52.837Z,30.07
2019-02-03T08:43:24.093Z,37.97
2019-02-03T08:45:56.609Z,38.23
2019-02-03T08:48:29.041Z,36.33
2019-02-03T08:51:00.716Z,31.47
2019-02-03T08:53:31.921Z,34.83
2019-02-03T08:56:03.178Z,32.80
2019-02-03T08:58:34.407Z,28.50
2019-02-03T09:01:05.932Z,34.40
2019-02-03T09:03:38.184Z,35.77
2019-02-03T09:06:11.032Z,31.90
2019-02-03T09:08:42.716Z,36.80
2019-02-03T09:11:14.400Z,46.97
2019-02-03T09:13:45.739Z,31.30
2019-02-03T09:16:17.085Z,33.93
2019-02-03T09:18:48.542Z,30.47
2019-02-03T09:21:20.096Z,29.57
2019-02-03T09:23:52.505Z,29.47
2019-02-03T09:26:23.752Z,33.27
2019-02-03T09:28:55.027Z,29.93
2019-02-03T09:31:26.353Z,29.83
2019-02-03T09:33:58.007Z,28.13
2019-02-03T09:36:29.209Z,32.77
2019-02-03T09:39:00.442Z,31.03
2019-02-03T09:41:32.870Z,26.17
2019-02-03T09:44:04.530Z,32.77
2019-02-03T09:46:35.782Z,32.47
2019-02-03T09:49:07.035Z,32.87
2019-02-03T09:51:38.291Z,37.30
2019-02-03T09:54:09.556Z,34.60
2019-02-03T09:56:40.909Z,37.67
2019-02-03T09:59:14.035Z,40.03
2019-02-03T10:01:45.283Z,28.27
2019-02-03T10:04:16.737Z,28.37
2019-02-03T10:06:48.282Z,33.83
2019-02-03T10:09:19.708Z,31.13
2019-02-03T10:11:52.428Z,34.20
2019-02-03T10:14:23.689Z,28.17
2019-02-03T10:16:56.229Z,30.43
2019-02-03T10:19:27.476Z,27.10
2019-02-03T10:21:59.932Z,30.20
2019-02-03T10:24:41.679Z,30.47
2019-02-03T10:27:04.164Z,25.03
2019-02-03T10:29:35.419Z,28.60
2019-02-03T10:32:06.666Z,29.13
2019-02-03T10:34:38.801Z,25.47
2019-02-03T10:37:10.052Z,30.63
2019-02-03T10:39:41.292Z,27.17
2019-02-03T10:42:12.541Z,26.37
2019-02-03T10:44:43.787Z,28.07
2019-02-03T10:47:15.471Z,25.13
2019-02-03T10:49:46.865Z,27.73
2019-02-03T10:52:18.081Z,30.63
2019-02-03T10:54:49.321Z,25.70
2019-02-03T10:57:20.874Z,21.27
2019-02-03T10:59:53.223Z,26.53
2019-02-03T11:02:24.482Z,30.17
2019-02-03T11:04:55.918Z,24.27
2019-02-03T11:07:28.242Z,27.17
2019-02-03T11:10:00.095Z,32.40
2019-02-03T11:12:31.726Z,28.70
2019-02-03T11:15:03.000Z,27.33
2019-02-03T11:17:35.264Z,26.53
2019-02-03T11:20:08.764Z,35.00
2019-02-03T11:22:40.016Z,28.10
2019-02-03T11:25:12.432Z,24.53
2019-02-03T11:27:43.797Z,26.07
2019-02-03T11:30:18.097Z,25.07
2019-02-03T11:32:49.566Z,26.43
2019-02-03T11:35:22.085Z,26.63
2019-02-03T11:37:53.665Z,21.43
2019-02-03T11:40:28.036Z,24.30
2019-02-03T11:42:59.552Z,24.97
2019-02-03T11:45:36.043Z,17.80
2019-02-03T11:48:10.248Z,22.20
2019-02-03T11:50:45.173Z,20.03
2019-02-03T11:53:19.866Z,20.70
2019-02-03T11:55:53.753Z,19.37
2019-02-03T11:58:24.550Z,16.73
2019-02-03T12:00:56.337Z,18.90
2019-02-03T12:03:28.663Z,19.20
2019-02-03T12:06:00.005Z,18.50
2019-02-03T12:08:31.246Z,21.70
2019-02-03T12:11:03.002Z,20.37
2019-02-03T12:13:34.253Z,16.97
2019-02-03T12:16:05.805Z,18.67
2019-02-03T12:18:37.054Z,19.73
2019-02-03T12:21:08.361Z,15.43
2019-02-03T12:23:39.604Z,16.73
2019-02-03T12:26:10.824Z,16.70
2019-02-03T12:28:42.076Z,17.73
2019-02-03T12:31:14.329Z,17.80
2019-02-03T12:33:45.655Z,11.43
2019-02-03T12:36:16.980Z,11.87
2019-02-03T12:38:48.251Z,12.47
2019-02-03T12:41:20.521Z,13.00
2019-02-03T12:43:52.633Z,10.90
2019-02-03T12:46:24.189Z,11.30
2019-02-03T12:48:55.428Z,7.97
2019-02-03T12:51:26.823Z,10.73
2019-02-03T12:53:58.044Z,10.53
2019-02-03T12:56:29.280Z,12.37
2019-02-03T12:59:00.608Z,10.30
2019-02-03T13:01:31.849Z,11.03
2019-02-03T13:04:03.924Z,9.00
2019-02-03T13:06:35.190Z,9.20
2019-02-03T13:09:10.617Z,9.53
2019-02-03T13:11:41.896Z,12.23
2019-02-03T13:14:13.466Z,13.57
2019-02-03T13:16:44.716Z,10.07
2019-02-03T13:19:15.968Z,7.63
2019-02-03T13:21:48.520Z,13.43
2019-02-03T13:24:20.194Z,9.50
2019-02-03T13:26:51.463Z,10.73
2019-02-03T13:29:22.709Z,13.73
2019-02-03T13:31:54.805Z,12.13
2019-02-03T13:34:26.052Z,12.53
2019-02-03T13:36:57.304Z,17.00
2019-02-03T13:39:28.520Z,20.07
2019-02-03T13:42:00.228Z,28.40
2019-02-03T13:44:31.869Z,17.90
2019-02-03T13:47:03.115Z,13.27
2019-02-03T13:49:34.393Z,16.27
2019-02-03T13:52:06.139Z,11.07
2019-02-03T13:54:37.537Z,13.47
2019-02-03T13:57:09.089Z,14.60
2019-02-03T13:59:40.329Z,13.63
2019-02-03T14:02:11.726Z,13.67
2019-02-03T14:04:42.976Z,13.17
2019-02-03T14:07:14.274Z,13.97
2019-02-03T14:09:46.349Z,17.93
2019-02-03T14:12:17.584Z,15.53
2019-02-03T14:14:48.805Z,16.60
2019-02-03T14:17:21.248Z,12.70
2019-02-03T14:19:52.689Z,12.63
2019-02-03T14:22:23.905Z,13.73
2019-02-03T14:24:55.184Z,17.27
2019-02-03T14:27:27.268Z,12.77
2019-02-03T14:29:59.496Z,10.73
2019-02-03T14:32:30.853Z,10.23
2019-02-03T14:35:02.115Z,11.83
2019-02-03T14:37:34.381Z,13.67
2019-02-03T14:40:06.408Z,13.40
2019-02-03T14:42:47.818Z,11.73
2019-02-03T14:45:12.975Z,10.03
2019-02-03T14:47:44.289Z,11.90
2019-02-03T14:50:19.989Z,8.87
2019-02-03T14:52:52.025Z,15.53
2019-02-03T14:55:25.973Z,11.03
2019-02-03T14:57:57.209Z,10.03
2019-02-03T15:00:48.602Z,10.47
2019-02-03T15:03:21.996Z,9.00
2019-02-03T15:05:53.312Z,11.23
2019-02-03T15:08:24.723Z,9.03
2019-02-03T15:10:56.524Z,9.83
2019-02-03T15:13:28.058Z,9.70
2019-02-03T15:16:00.577Z,7.67
2019-02-03T15:18:32.264Z,8.37
2019-02-03T15:21:04.771Z,8.03
2019-02-03T15:23:37.079Z,12.43
2019-02-03T15:26:08.933Z,8.13
2019-02-03T15:28:40.218Z,7.77
2019-02-03T15:31:11.458Z,8.33
2019-02-03T15:33:43.084Z,10.57
2019-02-03T15:36:15.140Z,8.27
2019-02-03T15:38:46.377Z,9.17
2019-02-03T15:41:17.572Z,7.67
2019-02-03T15:43:48.813Z,6.60
2019-02-03T15:46:20.032Z,7.67
2019-02-03T15:48:52.277Z,10.17
2019-02-03T15:51:23.691Z,9.27
2019-02-03T15:53:54.889Z,7.83
2019-02-03T15:56:26.257Z,8.10
2019-02-03T15:58:57.462Z,6.43
2019-02-03T16:01:28.725Z,6.83
2019-02-03T16:04:03.029Z,8.27
2019-02-03T16:06:34.343Z,7.40
2019-02-03T16:09:08.041Z,9.07
2019-02-03T16:11:39.473Z,6.83
2019-02-03T16:14:11.927Z,9.07
2019-02-03T16:16:43.180Z,9.97
2019-02-03T16:19:14.590Z,9.83
2019-02-03T16:21:46.849Z,8.03
2019-02-03T16:24:19.089Z,10.07
2019-02-03T16:26:54.457Z,8.03
2019-02-03T16:29:25.996Z,13.47
2019-02-03T16:31:58.380Z,13.17
2019-02-03T16:34:29.629Z,10.50
2019-02-03T16:37:01.108Z,8.67
2019-02-03T16:39:34.111Z,9.17
2019-02-03T16:42:05.516Z,10.60
2019-02-03T16:44:37.184Z,8.07
2019-02-03T16:47:08.441Z,11.97
2019-02-03T16:49:39.663Z,13.10
2019-02-03T16:52:12.661Z,12.17
2019-02-03T16:54:43.989Z,8.53
2019-02-03T16:57:15.513Z,8.40
2019-02-03T16:59:46.748Z,8.93
2019-02-03T17:02:17.949Z,9.27
2019-02-03T17:04:49.189Z,7.17
2019-02-03T17:07:20.462Z,8.17
2019-02-03T17:09:51.751Z,6.30
2019-02-03T17:12:22.933Z,7.87
2019-02-03T17:14:54.196Z,11.43
2019-02-03T17:17:26.329Z,5.47
2019-02-03T17:19:57.700Z,5.27
2019-02-03T17:22:29.253Z,7.73
2019-02-03T17:25:01.017Z,7.07
2019-02-03T17:27:32.241Z,4.93
2019-02-03T17:30:05.136Z,6.87
2019-02-03T17:32:36.472Z,7.13
2019-02-03T17:35:08.982Z,6.37
2019-02-03T17:37:40.228Z,5.97
2019-02-03T17:40:12.736Z,4.73
2019-02-03T17:42:44.165Z,6.63
2019-02-03T17:45:17.543Z,6.43
2019-02-03T17:47:49.576Z,6.77
2019-02-03T17:50:22.004Z,6.00
2019-02-03T17:52:53.294Z,5.83
2019-02-03T17:55:24.677Z,7.57
2019-02-03T17:57:56.425Z,6.67
2019-02-03T18:00:40.694Z,8.63
2019-02-03T18:03:13.050Z,9.73
2019-02-03T18:05:44.281Z,10.67
2019-02-03T18:08:15.566Z,7.67
2019-02-03T18:10:46.826Z,7.63
2019-02-03T18:13:18.324Z,11.53
2019-02-03T18:15:50.273Z,10.20
2019-02-03T18:18:21.520Z,8.57
2019-02-03T18:20:53.149Z,9.93
2019-02-03T18:23:24.387Z,10.43
2019-02-03T18:25:55.725Z,9.30
2019-02-03T18:28:26.938Z,10.30
2019-02-03T18:30:58.181Z,12.07
2019-02-03T18:33:29.741Z,9.57
2019-02-03T18:36:00.980Z,9.60
2019-02-03T18:38:32.245Z,11.90
2019-02-03T18:41:03.472Z,9.83
2019-02-03T18:43:36.897Z,8.83
2019-02-03T18:46:08.205Z,10.50
2019-02-03T18:48:39.477Z,13.13
2019-02-03T18:51:10.728Z,13.37
2019-02-03T18:53:43.085Z,15.00
2019-02-03T18:56:14.436Z,13.63
2019-02-03T18:58:45.658Z,13.00
2019-02-03T19:01:16.947Z,12.93
2019-02-03T19:03:48.205Z,14.37
2019-02-03T19:06:19.416Z,16.73
2019-02-03T19:08:51.000Z,20.33
2019-02-03T19:11:22.233Z,27.67
2019-02-03T19:13:53.488Z,24.03
2019-02-03T19:16:24.704Z,20.53
2019-02-03T19:18:56.263Z,16.50
2019-02-03T19:21:27.904Z,20.13
2019-02-03T19:23:59.151Z,21.83
2019-02-03T19:26:30.565Z,15.83
2019-02-03T19:29:02.349Z,16.30
2019-02-03T19:31:34.048Z,20.13
2019-02-03T19:34:05.432Z,22.37
2019-02-03T19:36:36.681Z,18.60
2019-02-03T19:39:10.784Z,15.43
2019-02-03T19:41:42.046Z,12.40
2019-02-03T19:44:13.388Z,10.10
2019-02-03T19:46:44.740Z,8.57
2019-02-03T19:49:16.577Z,8.87
2019-02-03T19:51:48.299Z,10.03
2019-02-03T19:54:19.539Z,11.70
2019-02-03T19:56:50.932Z,13.40
2019-02-03T19:59:22.185Z,9.97
2019-02-03T20:01:53.440Z,12.23
2019-02-03T20:04:25.672Z,11.20
2019-02-03T20:06:56.948Z,8.53
2019-02-03T20:09:29.361Z,9.17
2019-02-03T20:12:00.589Z,12.53
2019-02-03T20:14:31.835Z,13.00
2019-02-03T20:17:03.163Z,12.37
2019-02-03T20:19:34.380Z,9.97
2019-02-03T20:22:06.101Z,9.20
2019-02-03T20:24:37.608Z,10.77
2019-02-03T20:27:08.957Z,12.10
2019-02-03T20:29:40.164Z,12.67
2019-02-03T20:32:11.401Z,14.83
2019-02-03T20:34:42.755Z,11.17
2019-02-03T20:37:13.996Z,8.50
2019-02-03T20:39:45.407Z,11.30
2019-02-03T20:42:16.609Z,10.87
2019-02-03T20:44:47.833Z,7.90
2019-02-03T20:47:19.253Z,18.80
2019-02-03T20:49:51.436Z,13.80
2019-02-03T20:52:22.694Z,16.60
2019-02-03T20:54:53.904Z,14.47
2019-02-03T20:57:25.264Z,15.20
2019-02-03T20:59:56.501Z,12.27
2019-02-03T21:02:28.792Z,14.00
2019-02-03T21:05:00.037Z,14.20
2019-02-03T21:07:31.301Z,16.03
2019-02-03T21:10:02.626Z,15.63
2019-02-03T21:12:34.871Z,10.70
2019-02-03T21:15:07.581Z,12.50
2019-02-03T21:17:38.932Z,11.73
2019-02-03T21:20:14.708Z,13.33
2019-02-03T21:22:47.443Z,10.63
2019-02-03T21:25:19.273Z,8.77
2019-02-03T21:27:50.689Z,8.40
2019-02-03T21:30:36.045Z,9.37
2019-02-03T21:33:07.533Z,7.47
2019-02-03T21:35:38.880Z,5.90
2019-02-03T21:38:10.756Z,5.93
2019-02-03T21:40:42.001Z,40.63
2019-02-03T21:43:13.313Z,29.03
2019-02-03T21:45:45.350Z,10.57
2019-02-03T21:48:16.641Z,7.77
2019-02-03T21:50:47.898Z,10.90
2019-02-03T21:53:19.174Z,8.53
2019-02-03T21:55:50.412Z,13.57
2019-02-03T21:58:21.662Z,10.67
2019-02-03T22:00:53.320Z,11.77
2019-02-03T22:03:24.565Z,9.87
2019-02-03T22:05:55.948Z,12.00
2019-02-03T22:08:28.912Z,19.47
2019-02-03T22:11:00.259Z,14.17
2019-02-03T22:13:31.675Z,9.50
2019-02-03T22:16:03.073Z,8.70
2019-02-03T22:18:34.312Z,6.97
2019-02-03T22:21:05.841Z,7.17
2019-02-03T22:23:37.512Z,11.40
2019-02-03T22:26:08.912Z,8.60
2019-02-03T22:28:40.156Z,11.57
2019-02-03T22:31:12.399Z,12.20
2019-02-03T22:33:43.637Z,18.70
2019-02-03T22:36:14.885Z,8.17
2019-02-03T22:38:46.278Z,8.93
2019-02-03T22:41:17.508Z,9.37
2019-02-03T22:43:48.748Z,6.50
2019-02-03T22:46:19.985Z,6.57
2019-02-03T22:48:51.207Z,7.17
2019-02-03T22:51:22.458Z,14.17
2019-02-03T22:53:54.112Z,9.40
2019-02-03T22:56:25.536Z,8.40
2019-02-03T22:58:56.775Z,6.93
2019-02-03T23:01:35.884Z,9.03
2019-02-03T23:04:21.512Z,7.10
2019-02-03T23:06:52.885Z,7.70
2019-02-03T23:09:33.313Z,8.67
2019-02-03T23:12:07.414Z,8.63
2019-02-03T23:14:38.728Z,10.10
2019-02-03T23:17:11.128Z,8.37
2019-02-03T23:19:42.440Z,8.83
2019-02-03T23:22:13.753Z,8.90
2019-02-03T23:24:45.035Z,7.83
2019-02-03T23:27:16.709Z,15.23
2019-02-03T23:29:47.912Z,8.73
2019-02-03T23:32:19.153Z,7.63
2019-02-03T23:34:51.213Z,9.53
2019-02-03T23:37:22.623Z,11.90
2019-02-03T23:39:54.080Z,11.67
2019-02-03T23:42:25.315Z,9.33
2019-02-03T23:44:56.728Z,11.97
2019-02-03T23:47:27.969Z,15.80
2019-02-03T23:49:59.212Z,13.97
2019-02-03T23:52:30.966Z,15.40
2019-02-03T23:55:02.317Z,13.60
2019-02-03T23:57:33.556Z,17.17
